sensor_id;sensor_type;location;lat;lon;timestamp;temperature;humidity
4187;DHT22;2107;52.306;10.484;2024-03-06T00:00:53;4.30;99.90
4187;DHT22;2107;52.306;10.484;2024-03-06T00:03:21;4.20;99.90
4187;DHT22;2107;52.306;10.484;2024-03-06T00:05:48;4.20;99.90
4187;DHT22;2107;52.306;10.484;2024-03-06T00:08:15;4.20;99.90
4187;DHT22;2107;52.306;10.484;2024-03-06T00:10:42;4.20;99.90
4187;DHT22;2107;52.306;10.484;2024-03-06T00:13:10;4.20;99.90
4187;DHT22;2107;52.306;10.484;2024-03-06T00:15:37;4.20;99.90
4187;DHT22;2107;52.306;10.484;2024-03-06T00:18:04;4.30;99.90
4187;DHT22;2107;52.306;10.484;2024-03-06T00:20:33;4.20;99.90
4187;DHT22;2107;52.306;10.484;2024-03-06T00:23:00;4.20;99.90
4187;DHT22;2107;52.306;10.484;2024-03-06T00:25:27;4.30;99.90
4187;DHT22;2107;52.306;10.484;2024-03-06T00:27:53;4.30;99.90
4187;DHT22;2107;52.306;10.484;2024-03-06T00:30:20;4.20;99.90
4187;DHT22;2107;52.306;10.484;2024-03-06T00:32:47;4.30;99.90
4187;DHT22;2107;52.306;10.484;2024-03-06T00:35:14;4.30;99.90
4187;DHT22;2107;52.306;10.484;2024-03-06T00:37:42;4.20;99.90
4187;DHT22;2107;52.306;10.484;2024-03-06T00:40:11;4.20;99.90
4187;DHT22;2107;52.306;10.484;2024-03-06T00:42:38;4.20;99.90
4187;DHT22;2107;52.306;10.484;2024-03-06T00:45:07;4.20;99.90
4187;DHT22;2107;52.306;10.484;2024-03-06T00:47:34;4.20;99.90
4187;DHT22;2107;52.306;10.484;2024-03-06T00:50:01;4.20;99.90
4187;DHT22;2107;52.306;10.484;2024-03-06T00:52:28;4.10;99.90
4187;DHT22;2107;52.306;10.484;2024-03-06T00:54:56;4.00;99.90
4187;DHT22;2107;52.306;10.484;2024-03-06T00:57:23;4.10;99.90
4187;DHT22;2107;52.306;10.484;2024-03-06T00:59:50;4.10;99.90
4187;DHT22;2107;52.306;10.484;2024-03-06T01:02:17;4.10;99.90
4187;DHT22;2107;52.306;10.484;2024-03-06T01:04:44;4.00;99.90
4187;DHT22;2107;52.306;10.484;2024-03-06T01:07:11;3.90;99.90
4187;DHT22;2107;52.306;10.484;2024-03-06T01:09:38;3.90;99.90
4187;DHT22;2107;52.306;10.484;2024-03-06T01:12:06;3.90;99.90
4187;DHT22;2107;52.306;10.484;2024-03-06T01:14:33;4.00;99.90
4187;DHT22;2107;52.306;10.484;2024-03-06T01:17:00;4.00;99.90
4187;DHT22;2107;52.306;10.484;2024-03-06T01:19:27;4.00;99.90
4187;DHT22;2107;52.306;10.484;2024-03-06T01:21:54;4.00;99.90
4187;DHT22;2107;52.306;10.484;2024-03-06T01:24:21;3.90;99.90
4187;DHT22;2107;52.306;10.484;2024-03-06T01:26:48;3.90;99.90
4187;DHT22;2107;52.306;10.484;2024-03-06T01:29:16;3.90;99.90
4187;DHT22;2107;52.306;10.484;2024-03-06T01:31:43;3.90;99.90
4187;DHT22;2107;52.306;10.484;2024-03-06T01:34:12;3.90;99.90
4187;DHT22;2107;52.306;10.484;2024-03-06T01:36:38;4.00;99.90
4187;DHT22;2107;52.306;10.484;2024-03-06T01:39:05;4.00;99.90
4187;DHT22;2107;52.306;10.484;2024-03-06T01:41:32;3.90;99.90
4187;DHT22;2107;52.306;10.484;2024-03-06T01:43:59;4.00;99.90
4187;DHT22;2107;52.306;10.484;2024-03-06T01:46:27;3.90;99.90
4187;DHT22;2107;52.306;10.484;2024-03-06T01:48:54;3.90;99.90
4187;DHT22;2107;52.306;10.484;2024-03-06T01:51:21;3.90;99.90
4187;DHT22;2107;52.306;10.484;2024-03-06T01:53:48;3.90;99.90
4187;DHT22;2107;52.306;10.484;2024-03-06T01:56:15;3.80;99.90
4187;DHT22;2107;52.306;10.484;2024-03-06T01:58:43;3.80;99.90
4187;DHT22;2107;52.306;10.484;2024-03-06T02:01:12;3.70;99.90
4187;DHT22;2107;52.306;10.484;2024-03-06T02:03:41;3.60;99.90
4187;DHT22;2107;52.306;10.484;2024-03-06T02:06:10;3.60;99.90
4187;DHT22;2107;52.306;10.484;2024-03-06T02:08:37;3.60;99.90
4187;DHT22;2107;52.306;10.484;2024-03-06T02:11:05;3.60;99.90
4187;DHT22;2107;52.306;10.484;2024-03-06T02:13:33;3.60;99.90
4187;DHT22;2107;52.306;10.484;2024-03-06T02:16:00;3.70;99.90
4187;DHT22;2107;52.306;10.484;2024-03-06T02:18:27;3.60;99.90
4187;DHT22;2107;52.306;10.484;2024-03-06T02:20:55;3.50;99.90
4187;DHT22;2107;52.306;10.484;2024-03-06T02:23:22;3.50;99.90
4187;DHT22;2107;52.306;10.484;2024-03-06T02:25:49;3.50;99.90
4187;DHT22;2107;52.306;10.484;2024-03-06T02:28:16;3.50;99.90
4187;DHT22;2107;52.306;10.484;2024-03-06T02:30:43;3.50;99.90
4187;DHT22;2107;52.306;10.484;2024-03-06T02:33:10;3.50;99.90
4187;DHT22;2107;52.306;10.484;2024-03-06T02:35:37;3.50;99.90
4187;DHT22;2107;52.306;10.484;2024-03-06T02:38:06;3.50;99.90
4187;DHT22;2107;52.306;10.484;2024-03-06T02:40:33;3.50;99.90
4187;DHT22;2107;52.306;10.484;2024-03-06T02:43:00;3.50;99.90
4187;DHT22;2107;52.306;10.484;2024-03-06T02:45:28;3.50;99.90
4187;DHT22;2107;52.306;10.484;2024-03-06T02:47:54;3.50;99.90
4187;DHT22;2107;52.306;10.484;2024-03-06T02:50:21;3.60;99.90
4187;DHT22;2107;52.306;10.484;2024-03-06T02:52:48;3.60;99.90
4187;DHT22;2107;52.306;10.484;2024-03-06T02:55:18;3.50;99.90
4187;DHT22;2107;52.306;10.484;2024-03-06T02:57:45;3.40;99.90
4187;DHT22;2107;52.306;10.484;2024-03-06T03:00:13;3.40;99.90
4187;DHT22;2107;52.306;10.484;2024-03-06T03:02:41;3.50;99.90
4187;DHT22;2107;52.306;10.484;2024-03-06T03:05:09;3.50;99.90
4187;DHT22;2107;52.306;10.484;2024-03-06T03:07:36;3.50;99.90
4187;DHT22;2107;52.306;10.484;2024-03-06T03:10:03;3.50;99.90
4187;DHT22;2107;52.306;10.484;2024-03-06T03:12:33;3.50;99.90
4187;DHT22;2107;52.306;10.484;2024-03-06T03:15:00;3.50;99.90
4187;DHT22;2107;52.306;10.484;2024-03-06T03:17:27;3.40;99.90
4187;DHT22;2107;52.306;10.484;2024-03-06T03:19:54;3.40;99.90
4187;DHT22;2107;52.306;10.484;2024-03-06T03:22:20;3.40;99.90
4187;DHT22;2107;52.306;10.484;2024-03-06T03:24:47;3.50;99.90
4187;DHT22;2107;52.306;10.484;2024-03-06T03:27:14;3.40;99.90
4187;DHT22;2107;52.306;10.484;2024-03-06T03:29:43;3.40;99.90
4187;DHT22;2107;52.306;10.484;2024-03-06T03:32:09;3.40;99.90
4187;DHT22;2107;52.306;10.484;2024-03-06T03:34:36;3.30;99.90
4187;DHT22;2107;52.306;10.484;2024-03-06T03:37:03;3.30;99.90
4187;DHT22;2107;52.306;10.484;2024-03-06T03:39:30;3.40;99.90
4187;DHT22;2107;52.306;10.484;2024-03-06T03:41:57;3.40;99.90
4187;DHT22;2107;52.306;10.484;2024-03-06T03:44:24;3.40;99.90
4187;DHT22;2107;52.306;10.484;2024-03-06T03:46:52;3.50;99.90
4187;DHT22;2107;52.306;10.484;2024-03-06T03:49:19;3.30;99.90
4187;DHT22;2107;52.306;10.484;2024-03-06T03:51:45;3.30;99.90
4187;DHT22;2107;52.306;10.484;2024-03-06T03:54:12;3.30;99.90
4187;DHT22;2107;52.306;10.484;2024-03-06T03:56:39;3.30;99.90
4187;DHT22;2107;52.306;10.484;2024-03-06T03:59:06;3.30;99.90
4187;DHT22;2107;52.306;10.484;2024-03-06T04:01:33;3.30;99.90
4187;DHT22;2107;52.306;10.484;2024-03-06T04:04:02;3.30;99.90
4187;DHT22;2107;52.306;10.484;2024-03-06T04:06:29;3.30;99.90
4187;DHT22;2107;52.306;10.484;2024-03-06T04:08:56;3.40;99.90
4187;DHT22;2107;52.306;10.484;2024-03-06T04:11:23;3.40;99.90
4187;DHT22;2107;52.306;10.484;2024-03-06T04:13:50;3.40;99.90
4187;DHT22;2107;52.306;10.484;2024-03-06T04:16:17;3.50;99.90
4187;DHT22;2107;52.306;10.484;2024-03-06T04:18:44;3.50;99.90
4187;DHT22;2107;52.306;10.484;2024-03-06T04:21:13;3.50;99.90
4187;DHT22;2107;52.306;10.484;2024-03-06T04:23:40;3.50;99.90
4187;DHT22;2107;52.306;10.484;2024-03-06T04:26:07;3.50;99.90
4187;DHT22;2107;52.306;10.484;2024-03-06T04:28:34;3.40;99.90
4187;DHT22;2107;52.306;10.484;2024-03-06T04:31:01;3.40;99.90
4187;DHT22;2107;52.306;10.484;2024-03-06T04:33:28;3.40;99.90
4187;DHT22;2107;52.306;10.484;2024-03-06T04:35:55;3.40;99.90
4187;DHT22;2107;52.306;10.484;2024-03-06T04:38:24;3.30;99.90
4187;DHT22;2107;52.306;10.484;2024-03-06T04:40:51;3.30;99.90
4187;DHT22;2107;52.306;10.484;2024-03-06T04:43:18;3.30;99.90
4187;DHT22;2107;52.306;10.484;2024-03-06T04:45:45;3.20;99.90
4187;DHT22;2107;52.306;10.484;2024-03-06T04:48:12;3.10;99.90
4187;DHT22;2107;52.306;10.484;2024-03-06T04:50:39;3.20;99.90
4187;DHT22;2107;52.306;10.484;2024-03-06T04:53:06;3.10;99.90
4187;DHT22;2107;52.306;10.484;2024-03-06T04:55:35;3.20;99.90
4187;DHT22;2107;52.306;10.484;2024-03-06T04:58:02;3.20;99.90
4187;DHT22;2107;52.306;10.484;2024-03-06T05:00:30;3.20;99.90
4187;DHT22;2107;52.306;10.484;2024-03-06T05:02:56;3.10;99.90
4187;DHT22;2107;52.306;10.484;2024-03-06T05:05:24;3.20;99.90
4187;DHT22;2107;52.306;10.484;2024-03-06T05:07:51;3.10;99.90
4187;DHT22;2107;52.306;10.484;2024-03-06T05:10:18;3.10;99.90
4187;DHT22;2107;52.306;10.484;2024-03-06T05:12:46;3.10;99.90
4187;DHT22;2107;52.306;10.484;2024-03-06T05:15:15;3.10;99.90
4187;DHT22;2107;52.306;10.484;2024-03-06T05:17:42;3.10;99.90
4187;DHT22;2107;52.306;10.484;2024-03-06T05:20:10;3.10;99.90
4187;DHT22;2107;52.306;10.484;2024-03-06T05:22:37;3.20;99.90
4187;DHT22;2107;52.306;10.484;2024-03-06T05:25:04;3.20;99.90
4187;DHT22;2107;52.306;10.484;2024-03-06T05:27:31;3.20;99.90
4187;DHT22;2107;52.306;10.484;2024-03-06T05:29:59;3.20;99.90
4187;DHT22;2107;52.306;10.484;2024-03-06T05:32:26;3.20;99.90
4187;DHT22;2107;52.306;10.484;2024-03-06T05:34:53;3.30;99.90
4187;DHT22;2107;52.306;10.484;2024-03-06T05:37:20;3.20;99.90
4187;DHT22;2107;52.306;10.484;2024-03-06T05:39:47;3.20;99.90
4187;DHT22;2107;52.306;10.484;2024-03-06T05:42:14;3.20;99.90
4187;DHT22;2107;52.306;10.484;2024-03-06T05:44:41;3.10;99.90
4187;DHT22;2107;52.306;10.484;2024-03-06T05:47:09;3.00;99.90
4187;DHT22;2107;52.306;10.484;2024-03-06T05:49:36;3.10;99.90
4187;DHT22;2107;52.306;10.484;2024-03-06T05:52:03;2.90;99.90
4187;DHT22;2107;52.306;10.484;2024-03-06T05:54:33;2.90;99.90
4187;DHT22;2107;52.306;10.484;2024-03-06T05:57:00;2.90;99.90
4187;DHT22;2107;52.306;10.484;2024-03-06T05:59:28;2.90;99.90
4187;DHT22;2107;52.306;10.484;2024-03-06T06:01:55;2.90;99.90
4187;DHT22;2107;52.306;10.484;2024-03-06T06:04:23;2.90;99.90
4187;DHT22;2107;52.306;10.484;2024-03-06T06:06:51;2.90;99.90
4187;DHT22;2107;52.306;10.484;2024-03-06T06:09:18;2.90;99.90
4187;DHT22;2107;52.306;10.484;2024-03-06T06:11:45;2.90;99.90
4187;DHT22;2107;52.306;10.484;2024-03-06T06:14:13;2.80;99.90
4187;DHT22;2107;52.306;10.484;2024-03-06T06:16:41;2.80;99.90
4187;DHT22;2107;52.306;10.484;2024-03-06T06:19:08;2.70;99.90
4187;DHT22;2107;52.306;10.484;2024-03-06T06:21:37;2.80;99.90
4187;DHT22;2107;52.306;10.484;2024-03-06T06:24:04;2.80;99.90
4187;DHT22;2107;52.306;10.484;2024-03-06T06:26:31;2.80;99.90
4187;DHT22;2107;52.306;10.484;2024-03-06T06:28:58;2.90;99.90
4187;DHT22;2107;52.306;10.484;2024-03-06T06:31:25;2.90;99.90
4187;DHT22;2107;52.306;10.484;2024-03-06T06:33:53;2.90;99.90
4187;DHT22;2107;52.306;10.484;2024-03-06T06:36:20;3.00;99.90
4187;DHT22;2107;52.306;10.484;2024-03-06T06:38:48;3.10;99.90
4187;DHT22;2107;52.306;10.484;2024-03-06T06:41:17;3.00;99.90
4187;DHT22;2107;52.306;10.484;2024-03-06T06:43:44;3.10;99.90
4187;DHT22;2107;52.306;10.484;2024-03-06T06:46:11;3.20;99.90
4187;DHT22;2107;52.306;10.484;2024-03-06T06:48:38;3.30;99.90
4187;DHT22;2107;52.306;10.484;2024-03-06T06:51:05;3.30;99.90
4187;DHT22;2107;52.306;10.484;2024-03-06T06:53:32;3.30;99.90
4187;DHT22;2107;52.306;10.484;2024-03-06T06:56:00;3.20;99.90
4187;DHT22;2107;52.306;10.484;2024-03-06T06:58:27;3.30;99.90
4187;DHT22;2107;52.306;10.484;2024-03-06T07:00:54;3.20;99.90
4187;DHT22;2107;52.306;10.484;2024-03-06T07:03:21;3.30;99.90
4187;DHT22;2107;52.306;10.484;2024-03-06T07:05:48;3.30;99.90
4187;DHT22;2107;52.306;10.484;2024-03-06T07:08:15;3.30;99.90
4187;DHT22;2107;52.306;10.484;2024-03-06T07:10:42;3.40;99.90
4187;DHT22;2107;52.306;10.484;2024-03-06T07:13:10;3.50;99.90
4187;DHT22;2107;52.306;10.484;2024-03-06T07:15:37;3.50;99.90
4187;DHT22;2107;52.306;10.484;2024-03-06T07:18:04;3.60;99.90
4187;DHT22;2107;52.306;10.484;2024-03-06T07:20:31;3.70;99.90
4187;DHT22;2107;52.306;10.484;2024-03-06T07:22:58;3.80;99.90
4187;DHT22;2107;52.306;10.484;2024-03-06T07:25:25;4.00;99.90
4187;DHT22;2107;52.306;10.484;2024-03-06T07:27:52;3.90;99.90
4187;DHT22;2107;52.306;10.484;2024-03-06T07:30:20;4.10;99.90
4187;DHT22;2107;52.306;10.484;2024-03-06T07:32:47;4.20;99.90
4187;DHT22;2107;52.306;10.484;2024-03-06T07:35:14;4.10;99.90
4187;DHT22;2107;52.306;10.484;2024-03-06T07:37:43;4.10;99.90
4187;DHT22;2107;52.306;10.484;2024-03-06T07:40:10;4.10;99.90
4187;DHT22;2107;52.306;10.484;2024-03-06T07:42:37;4.20;99.90
4187;DHT22;2107;52.306;10.484;2024-03-06T07:45:05;4.30;99.90
4187;DHT22;2107;52.306;10.484;2024-03-06T07:47:36;4.30;99.90
4187;DHT22;2107;52.306;10.484;2024-03-06T07:50:04;4.30;99.90
4187;DHT22;2107;52.306;10.484;2024-03-06T07:52:33;4.40;99.90
4187;DHT22;2107;52.306;10.484;2024-03-06T07:55:01;4.60;99.90
4187;DHT22;2107;52.306;10.484;2024-03-06T07:57:28;4.60;99.90
4187;DHT22;2107;52.306;10.484;2024-03-06T07:59:55;4.70;99.90
4187;DHT22;2107;52.306;10.484;2024-03-06T08:02:22;4.90;99.90
4187;DHT22;2107;52.306;10.484;2024-03-06T08:04:50;4.70;99.90
4187;DHT22;2107;52.306;10.484;2024-03-06T08:07:17;4.90;99.90
4187;DHT22;2107;52.306;10.484;2024-03-06T08:09:44;4.80;99.90
4187;DHT22;2107;52.306;10.484;2024-03-06T08:12:11;4.80;99.90
4187;DHT22;2107;52.306;10.484;2024-03-06T08:14:38;4.80;99.90
4187;DHT22;2107;52.306;10.484;2024-03-06T08:17:05;5.00;99.90
4187;DHT22;2107;52.306;10.484;2024-03-06T08:19:30;5.10;99.90
4187;DHT22;2107;52.306;10.484;2024-03-06T08:21:59;5.20;99.90
4187;DHT22;2107;52.306;10.484;2024-03-06T08:24:26;5.40;99.90
4187;DHT22;2107;52.306;10.484;2024-03-06T08:26:53;5.40;99.90
4187;DHT22;2107;52.306;10.484;2024-03-06T08:29:21;5.40;99.90
4187;DHT22;2107;52.306;10.484;2024-03-06T08:31:48;5.70;99.90
4187;DHT22;2107;52.306;10.484;2024-03-06T08:34:14;5.60;99.90
4187;DHT22;2107;52.306;10.484;2024-03-06T08:36:43;5.60;99.90
4187;DHT22;2107;52.306;10.484;2024-03-06T08:39:11;5.90;99.90
4187;DHT22;2107;52.306;10.484;2024-03-06T08:41:41;6.00;99.90
4187;DHT22;2107;52.306;10.484;2024-03-06T08:44:08;6.00;99.90
4187;DHT22;2107;52.306;10.484;2024-03-06T08:46:35;5.90;99.90
4187;DHT22;2107;52.306;10.484;2024-03-06T08:49:02;5.90;99.90
4187;DHT22;2107;52.306;10.484;2024-03-06T08:51:29;6.00;99.90
4187;DHT22;2107;52.306;10.484;2024-03-06T08:53:56;6.40;99.90
4187;DHT22;2107;52.306;10.484;2024-03-06T08:56:25;6.20;99.90
4187;DHT22;2107;52.306;10.484;2024-03-06T08:58:52;6.50;99.90
4187;DHT22;2107;52.306;10.484;2024-03-06T09:01:19;6.70;99.90
4187;DHT22;2107;52.306;10.484;2024-03-06T09:03:46;6.50;99.90
4187;DHT22;2107;52.306;10.484;2024-03-06T09:06:13;6.70;99.90
4187;DHT22;2107;52.306;10.484;2024-03-06T09:08:40;6.80;99.90
4187;DHT22;2107;52.306;10.484;2024-03-06T09:11:07;6.70;99.90
4187;DHT22;2107;52.306;10.484;2024-03-06T09:13:35;6.90;99.90
4187;DHT22;2107;52.306;10.484;2024-03-06T09:16:02;6.90;99.90
4187;DHT22;2107;52.306;10.484;2024-03-06T09:18:29;6.70;99.90
4187;DHT22;2107;52.306;10.484;2024-03-06T09:20:56;6.70;99.90
4187;DHT22;2107;52.306;10.484;2024-03-06T09:23:23;6.40;99.90
4187;DHT22;2107;52.306;10.484;2024-03-06T09:25:51;7.00;99.90
4187;DHT22;2107;52.306;10.484;2024-03-06T09:28:19;7.00;99.90
4187;DHT22;2107;52.306;10.484;2024-03-06T09:30:48;7.50;99.90
4187;DHT22;2107;52.306;10.484;2024-03-06T09:33:14;7.50;99.90
4187;DHT22;2107;52.306;10.484;2024-03-06T09:35:41;7.70;99.90
4187;DHT22;2107;52.306;10.484;2024-03-06T09:38:10;7.70;99.90
4187;DHT22;2107;52.306;10.484;2024-03-06T09:40:39;7.70;99.90
4187;DHT22;2107;52.306;10.484;2024-03-06T09:43:07;7.60;99.90
4187;DHT22;2107;52.306;10.484;2024-03-06T09:45:34;7.80;99.90
4187;DHT22;2107;52.306;10.484;2024-03-06T09:48:04;8.00;99.90
4187;DHT22;2107;52.306;10.484;2024-03-06T09:50:35;8.10;99.90
4187;DHT22;2107;52.306;10.484;2024-03-06T09:53:08;8.30;99.90
4187;DHT22;2107;52.306;10.484;2024-03-06T09:55:36;8.30;99.90
4187;DHT22;2107;52.306;10.484;2024-03-06T09:58:04;8.50;99.90
4187;DHT22;2107;52.306;10.484;2024-03-06T10:00:31;8.70;99.90
4187;DHT22;2107;52.306;10.484;2024-03-06T10:03:01;9.00;99.90
4187;DHT22;2107;52.306;10.484;2024-03-06T10:05:32;7.80;99.90
4187;DHT22;2107;52.306;10.484;2024-03-06T10:08:01;7.60;99.90
4187;DHT22;2107;52.306;10.484;2024-03-06T10:10:29;7.70;99.90
4187;DHT22;2107;52.306;10.484;2024-03-06T10:12:56;7.50;99.90
4187;DHT22;2107;52.306;10.484;2024-03-06T10:15:25;6.90;99.90
4187;DHT22;2107;52.306;10.484;2024-03-06T10:18:10;7.30;99.90
4187;DHT22;2107;52.306;10.484;2024-03-06T10:20:39;8.10;99.90
4187;DHT22;2107;52.306;10.484;2024-03-06T10:23:09;8.20;99.90
4187;DHT22;2107;52.306;10.484;2024-03-06T10:25:36;8.00;99.90
4187;DHT22;2107;52.306;10.484;2024-03-06T10:28:05;8.20;99.90
4187;DHT22;2107;52.306;10.484;2024-03-06T10:30:33;7.80;99.90
4187;DHT22;2107;52.306;10.484;2024-03-06T10:33:02;7.90;99.90
4187;DHT22;2107;52.306;10.484;2024-03-06T10:35:29;7.90;99.90
4187;DHT22;2107;52.306;10.484;2024-03-06T10:37:59;7.80;99.90
4187;DHT22;2107;52.306;10.484;2024-03-06T10:40:27;8.00;99.90
4187;DHT22;2107;52.306;10.484;2024-03-06T10:42:55;8.60;99.90
4187;DHT22;2107;52.306;10.484;2024-03-06T10:45:26;8.50;99.90
4187;DHT22;2107;52.306;10.484;2024-03-06T10:47:58;8.90;99.90
4187;DHT22;2107;52.306;10.484;2024-03-06T10:50:26;9.30;99.90
4187;DHT22;2107;52.306;10.484;2024-03-06T10:52:53;9.40;99.90
4187;DHT22;2107;52.306;10.484;2024-03-06T10:55:24;9.30;99.90
4187;DHT22;2107;52.306;10.484;2024-03-06T10:57:52;9.50;99.90
4187;DHT22;2107;52.306;10.484;2024-03-06T11:00:20;10.30;99.90
4187;DHT22;2107;52.306;10.484;2024-03-06T11:02:47;10.40;99.90
4187;DHT22;2107;52.306;10.484;2024-03-06T11:05:15;9.60;99.90
4187;DHT22;2107;52.306;10.484;2024-03-06T11:07:42;9.50;99.90
4187;DHT22;2107;52.306;10.484;2024-03-06T11:10:09;10.00;99.10
4187;DHT22;2107;52.306;10.484;2024-03-06T11:12:43;9.50;99.20
4187;DHT22;2107;52.306;10.484;2024-03-06T11:15:14;10.00;99.10
4187;DHT22;2107;52.306;10.484;2024-03-06T11:17:42;9.40;98.30
4187;DHT22;2107;52.306;10.484;2024-03-06T11:20:16;10.20;99.50
4187;DHT22;2107;52.306;10.484;2024-03-06T11:23:02;9.00;99.80
4187;DHT22;2107;52.306;10.484;2024-03-06T11:26:02;9.90;99.30
4187;DHT22;2107;52.306;10.484;2024-03-06T11:28:32;11.10;98.20
4187;DHT22;2107;52.306;10.484;2024-03-06T11:31:01;12.00;97.00
4187;DHT22;2107;52.306;10.484;2024-03-06T11:33:35;11.80;95.10
4187;DHT22;2107;52.306;10.484;2024-03-06T11:36:20;12.20;94.60
4187;DHT22;2107;52.306;10.484;2024-03-06T11:38:51;12.90;93.10
4187;DHT22;2107;52.306;10.484;2024-03-06T11:41:20;13.10;91.20
4187;DHT22;2107;52.306;10.484;2024-03-06T11:43:50;10.50;90.70
4187;DHT22;2107;52.306;10.484;2024-03-06T11:46:19;10.60;94.70
4187;DHT22;2107;52.306;10.484;2024-03-06T11:48:52;11.40;94.20
4187;DHT22;2107;52.306;10.484;2024-03-06T11:51:20;11.20;92.10
4187;DHT22;2107;52.306;10.484;2024-03-06T11:53:50;11.30;93.50
4187;DHT22;2107;52.306;10.484;2024-03-06T11:56:18;11.00;93.20
4187;DHT22;2107;52.306;10.484;2024-03-06T11:58:46;11.10;93.30
4187;DHT22;2107;52.306;10.484;2024-03-06T12:01:14;11.50;92.80
4187;DHT22;2107;52.306;10.484;2024-03-06T12:03:42;12.10;92.00
4187;DHT22;2107;52.306;10.484;2024-03-06T12:06:09;12.10;91.90
4187;DHT22;2107;52.306;10.484;2024-03-06T12:08:36;10.50;92.80
4187;DHT22;2107;52.306;10.484;2024-03-06T12:11:05;10.90;93.80
4187;DHT22;2107;52.306;10.484;2024-03-06T12:13:33;10.80;93.00
4187;DHT22;2107;52.306;10.484;2024-03-06T12:16:04;9.60;94.00
4187;DHT22;2107;52.306;10.484;2024-03-06T12:18:33;9.40;95.30
4187;DHT22;2107;52.306;10.484;2024-03-06T12:21:01;10.20;94.80
4187;DHT22;2107;52.306;10.484;2024-03-06T12:23:29;10.00;92.80
4187;DHT22;2107;52.306;10.484;2024-03-06T12:26:03;10.60;93.40
4187;DHT22;2107;52.306;10.484;2024-03-06T12:28:30;11.00;91.70
4187;DHT22;2107;52.306;10.484;2024-03-06T12:30:57;10.60;91.50
4187;DHT22;2107;52.306;10.484;2024-03-06T12:33:27;10.50;93.80
4187;DHT22;2107;52.306;10.484;2024-03-06T12:36:06;10.50;91.20
4187;DHT22;2107;52.306;10.484;2024-03-06T12:38:36;10.90;91.50
4187;DHT22;2107;52.306;10.484;2024-03-06T12:41:03;11.60;91.20
4187;DHT22;2107;52.306;10.484;2024-03-06T12:43:31;12.30;90.30
4187;DHT22;2107;52.306;10.484;2024-03-06T12:46:00;12.60;88.70
4187;DHT22;2107;52.306;10.484;2024-03-06T12:48:28;12.10;85.90
4187;DHT22;2107;52.306;10.484;2024-03-06T12:50:55;11.50;87.50
4187;DHT22;2107;52.306;10.484;2024-03-06T12:53:31;10.90;89.70
4187;DHT22;2107;52.306;10.484;2024-03-06T12:55:58;11.90;90.90
4187;DHT22;2107;52.306;10.484;2024-03-06T12:58:25;12.60;88.90
4187;DHT22;2107;52.306;10.484;2024-03-06T13:00:52;12.40;85.80
4187;DHT22;2107;52.306;10.484;2024-03-06T13:03:20;11.70;83.80
4187;DHT22;2107;52.306;10.484;2024-03-06T13:05:47;11.60;85.80
4187;DHT22;2107;52.306;10.484;2024-03-06T13:08:14;12.50;87.90
4187;DHT22;2107;52.306;10.484;2024-03-06T13:10:42;13.10;85.00
4187;DHT22;2107;52.306;10.484;2024-03-06T13:13:10;13.80;84.60
4187;DHT22;2107;52.306;10.484;2024-03-06T13:15:37;13.90;82.60
4187;DHT22;2107;52.306;10.484;2024-03-06T13:18:04;14.00;82.60
4187;DHT22;2107;52.306;10.484;2024-03-06T13:20:31;13.70;80.50
4187;DHT22;2107;52.306;10.484;2024-03-06T13:22:59;13.60;80.40
4187;DHT22;2107;52.306;10.484;2024-03-06T13:25:26;13.80;81.40
4187;DHT22;2107;52.306;10.484;2024-03-06T13:27:54;13.50;80.60
4187;DHT22;2107;52.306;10.484;2024-03-06T13:30:21;13.50;80.80
4187;DHT22;2107;52.306;10.484;2024-03-06T13:32:48;13.20;78.70
4187;DHT22;2107;52.306;10.484;2024-03-06T13:35:15;12.90;80.80
4187;DHT22;2107;52.306;10.484;2024-03-06T13:37:42;12.70;80.00
4187;DHT22;2107;52.306;10.484;2024-03-06T13:40:10;13.00;82.20
4187;DHT22;2107;52.306;10.484;2024-03-06T13:42:39;13.50;80.90
4187;DHT22;2107;52.306;10.484;2024-03-06T13:45:08;14.00;80.40
4187;DHT22;2107;52.306;10.484;2024-03-06T13:47:37;14.00;78.40
4187;DHT22;2107;52.306;10.484;2024-03-06T13:50:06;13.60;76.80
4187;DHT22;2107;52.306;10.484;2024-03-06T13:52:34;13.10;79.80
4187;DHT22;2107;52.306;10.484;2024-03-06T13:55:01;13.20;81.00
4187;DHT22;2107;52.306;10.484;2024-03-06T13:57:30;13.20;80.50
4187;DHT22;2107;52.306;10.484;2024-03-06T13:59:59;13.20;81.00
4187;DHT22;2107;52.306;10.484;2024-03-06T14:02:27;13.40;80.50
4187;DHT22;2107;52.306;10.484;2024-03-06T14:04:54;13.60;80.10
4187;DHT22;2107;52.306;10.484;2024-03-06T14:07:21;13.70;78.80
4187;DHT22;2107;52.306;10.484;2024-03-06T14:09:49;14.00;78.20
4187;DHT22;2107;52.306;10.484;2024-03-06T14:12:16;14.50;77.40
4187;DHT22;2107;52.306;10.484;2024-03-06T14:14:43;14.80;76.20
4187;DHT22;2107;52.306;10.484;2024-03-06T14:17:10;15.40;73.60
4187;DHT22;2107;52.306;10.484;2024-03-06T14:19:39;15.20;72.10
4187;DHT22;2107;52.306;10.484;2024-03-06T14:22:07;15.20;71.00
4187;DHT22;2107;52.306;10.484;2024-03-06T14:24:34;15.70;70.70
4187;DHT22;2107;52.306;10.484;2024-03-06T14:27:01;16.00;67.40
4187;DHT22;2107;52.306;10.484;2024-03-06T14:29:28;15.70;66.50
4187;DHT22;2107;52.306;10.484;2024-03-06T14:31:55;15.60;66.00
4187;DHT22;2107;52.306;10.484;2024-03-06T14:34:22;15.60;63.90
4187;DHT22;2107;52.306;10.484;2024-03-06T14:36:51;15.00;64.90
4187;DHT22;2107;52.306;10.484;2024-03-06T14:39:18;15.20;65.60
4187;DHT22;2107;52.306;10.484;2024-03-06T14:41:47;15.40;64.60
4187;DHT22;2107;52.306;10.484;2024-03-06T14:44:14;15.00;64.30
4187;DHT22;2107;52.306;10.484;2024-03-06T14:46:41;14.80;64.10
4187;DHT22;2107;52.306;10.484;2024-03-06T14:49:09;15.20;65.20
4187;DHT22;2107;52.306;10.484;2024-03-06T14:51:36;15.50;64.00
4187;DHT22;2107;52.306;10.484;2024-03-06T14:54:05;15.80;63.80
4187;DHT22;2107;52.306;10.484;2024-03-06T14:56:32;15.60;62.90
4187;DHT22;2107;52.306;10.484;2024-03-06T14:58:59;15.30;64.20
4187;DHT22;2107;52.306;10.484;2024-03-06T15:01:25;15.10;62.00
4187;DHT22;2107;52.306;10.484;2024-03-06T15:03:53;14.50;62.60
4187;DHT22;2107;52.306;10.484;2024-03-06T15:06:20;14.50;65.00
4187;DHT22;2107;52.306;10.484;2024-03-06T15:08:48;14.30;63.50
4187;DHT22;2107;52.306;10.484;2024-03-06T15:11:16;13.00;65.10
4187;DHT22;2107;52.306;10.484;2024-03-06T15:13:43;11.90;70.00
4187;DHT22;2107;52.306;10.484;2024-03-06T15:16:10;11.20;72.40
4187;DHT22;2107;52.306;10.484;2024-03-06T15:18:38;10.90;74.70
4187;DHT22;2107;52.306;10.484;2024-03-06T15:21:06;10.70;77.00
4187;DHT22;2107;52.306;10.484;2024-03-06T15:23:34;10.60;78.10
4187;DHT22;2107;52.306;10.484;2024-03-06T15:26:01;10.50;79.00
4187;DHT22;2107;52.306;10.484;2024-03-06T15:28:29;10.10;80.00
4187;DHT22;2107;52.306;10.484;2024-03-06T15:30:56;9.90;81.70
4187;DHT22;2107;52.306;10.484;2024-03-06T15:33:23;9.60;83.20
4187;DHT22;2107;52.306;10.484;2024-03-06T15:35:51;9.50;84.10
4187;DHT22;2107;52.306;10.484;2024-03-06T15:38:17;9.20;85.80
4187;DHT22;2107;52.306;10.484;2024-03-06T15:40:45;9.00;87.40
4187;DHT22;2107;52.306;10.484;2024-03-06T15:43:15;8.90;89.10
4187;DHT22;2107;52.306;10.484;2024-03-06T15:45:44;8.80;89.80
4187;DHT22;2107;52.306;10.484;2024-03-06T15:48:11;8.80;90.20
4187;DHT22;2107;52.306;10.484;2024-03-06T15:50:39;8.60;90.80
4187;DHT22;2107;52.306;10.484;2024-03-06T15:53:07;8.60;91.60
4187;DHT22;2107;52.306;10.484;2024-03-06T15:55:34;8.60;91.40
4187;DHT22;2107;52.306;10.484;2024-03-06T15:58:03;8.50;91.70
4187;DHT22;2107;52.306;10.484;2024-03-06T16:00:31;8.40;91.90